EST,Max TemperatureF,Mean TemperatureF,Min TemperatureF,Max Dew PointF,MeanDew PointF,Min DewpointF,Max Humidity, Mean Humidity, Min Humidity, Max Sea Level PressureIn, Mean Sea Level PressureIn, Min Sea Level PressureIn, Max VisibilityMiles, Mean VisibilityMiles, Min VisibilityMiles, Max Wind SpeedMPH, Mean Wind SpeedMPH, Max Gust SpeedMPH,PrecipitationIn, CloudCover, Events, WindDirDegrees
2013-1-1,37,34,31,36,32,24,100,86,72,30.17,30.10,30.05,10,6,2,13,7,14,0.07,8,Rain,335
2013-1-2,35,30,24,25,21,17,81,68,54,30.29,30.23,30.16,10,8,5,14,4,16,0.00,5,,356
2013-1-3,41,31,21,25,20,16,92,70,47,30.40,30.31,30.25,10,9,6,17,5,22,0.00,2,,263
2013-1-4,41,35,28,25,24,23,78,65,51,30.43,30.40,30.38,10,10,6,21,8,26,0.00,4,,241
2013-1-5,46,35,24,29,26,21,92,67,42,30.40,30.32,30.21,10,9,6,15,4,17,0.00,4,,208
2013-1-6,42,35,27,34,27,21,81,70,59,30.41,30.21,30.11,10,9,7,24,11,28,0.00,7,,262
2013-1-7,44,33,22,28,23,19,88,69,49,30.49,30.39,30.22,20,8,3,9,2,12,0.00,0,,139
2013-1-8,55,40,25,33,29,23,85,62,38,30.35,30.27,30.24,10,9,6,16,4,22,0.00,3,,156
2013-1-9,60,51,41,45,40,34,80,66,51,30.51,30.37,30.24,10,10,7,10,4,13,0.01,8,Rain,305
2013-1-10,54,49,43,50,42,32,93,78,62,30.50,30.32,30.03,10,8,2,12,5,16,0.19,8,Rain,91
2013-1-11,68,61,54,59,53,47,93,71,48,30.02,29.95,29.87,10,8,2,23,10,31,0.69,7,Rain,195
2013-1-12,69,64,59,64,60,55,97,87,76,30.03,29.93,29.78,10,10,6,23,9,30,T,7,Rain,175
2013-1-13,69,51,33,59,51,29,100,85,70,30.22,29.92,29.75,10,6,1,30,12,41,2.72,8,Rain,238
2013-1-14,33,30,26,27,23,21,82,74,66,30.48,30.36,30.23,10,10,10,15,9,20,0.00,7,,351
2013-1-15,33,29,24,31,25,21,88,79,69,30.36,30.22,30.08,10,6,2,16,9,21,0.27,8,Rain-Snow,29
2013-1-16,34,33,31,30,29,28,100,91,82,30.16,30.08,30.02,8,6,2,10,5,14,T,8,,275
2013-1-17,47,39,30,32,27,22,85,69,53,30.43,30.22,30.13,10,9,7,20,8,23,0.00,4,,356
2013-1-18,45,35,25,26,22,18,75,58,40,30.56,30.45,30.30,10,10,10,15,7,20,0.00,0,,156
2013-1-19,57,49,40,29,26,25,59,45,30,30.29,30.15,30.01,10,10,10,23,15,31,0.00,0,,208
2013-1-20,49,38,27,34,17,5,70,45,20,30.27,30.18,30.04,10,10,10,20,10,28,0.00,1,,304
2013-1-21,32,24,16,18,9,-1,68,50,31,30.33,30.23,30.18,10,10,10,25,13,33,0.00,4,,293
2013-1-22,23,17,11,3,-2,-4,58,46,34,30.47,30.40,30.33,10,10,10,16,10,21,0.00,4,,291
2013-1-23,39,27,15,19,10,3,62,49,35,30.41,30.29,30.12,10,10,10,14,5,18,0.00,4,,249
2013-1-24,32,27,21,20,4,-6,63,43,23,30.60,30.46,30.19,10,10,10,24,12,31,0.00,6,,39
2013-1-25,29,26,23,25,18,3,92,64,36,30.39,30.18,30.09,10,7,2,13,7,16,0.02,8,Rain-Snow,166
2013-1-26,39,31,22,25,21,17,92,66,40,30.43,30.32,30.20,10,7,2,9,4,12,0.00,4,,327
2013-1-27,47,36,24,41,28,18,93,73,53,30.43,30.32,30.16,10,7,4,13,6,17,0.14,7,Rain,124
2013-1-28,59,53,47,52,47,39,93,78,63,30.16,30.11,30.07,10,8,2,20,11,28,0.22,8,Rain,197
2013-1-29,67,61,55,59,55,51,86,80,73,30.08,29.90,29.56,10,9,7,28,14,37,0.00,7,,180
2013-1-30,71,52,33,61,48,24,100,84,67,29.73,29.47,29.35,10,9,2,33,18,44,0.74,8,Rain-Thunderstorm,222
2013-1-31,37,28,19,29,21,9,92,72,52,30.16,29.98,29.77,10,6,0,35,18,43,0.03,7,Fog-Snow,269